Time;durP1;ratioP1;P1;durP2;ratioP2;P2;SDS_P1;SDS_P2;PMS_P1;PMS_P2;Temp;Humidity;BMP_temperature;BMP_pressure;BME280_temperature;BME280_humidity;BME280_pressure;Samples;Min_cycle;Max_cycle;Signal;HPM_P1;HPM_P2
2023/09/04 00:01:14;;;;;;;1.80;1.70;;;;;;;;;;5059071;28;20226;-86
2023/09/04 00:03:40;;;;;;;1.73;1.57;;;;;;;;;;5039585;28;20249;-86
2023/09/04 00:06:05;;;;;;;1.43;1.33;;;;;;;;;;5036097;28;20680;-86
2023/09/04 00:08:31;;;;;;;1.40;1.30;;;;;;;;;;5035064;28;20221;-86
2023/09/04 00:10:56;;;;;;;2.53;1.70;;;;;;;;;;5039982;28;20226;-85
2023/09/04 00:13:26;;;;;;;2.03;1.20;;;;;;;;;;5051036;28;20238;-86
2023/09/04 00:15:57;;;;;;;2.80;1.70;;;;;;;;;;5057068;28;20229;-85
2023/09/04 00:18:23;;;;;;;1.67;1.40;;;;;;;;;;5032896;28;20262;-88
2023/09/04 00:20:52;;;;;;;2.60;1.50;;;;;;;;;;5062301;28;20289;-87
2023/09/04 00:23:17;;;;;;;1.30;1.20;;;;;;;;;;5066505;28;20243;-87
2023/09/04 00:25:48;;;;;;;2.67;1.30;;;;;;;;;;5047749;28;20198;-85
2023/09/04 00:28:13;;;;;;;2.00;1.20;;;;;;;;;;5049692;28;20309;-87
2023/09/04 00:30:39;;;;;;;1.53;1.30;;;;;;;;;;5057060;28;20203;-87
2023/09/04 00:33:07;;;;;;;1.20;1.10;;;;;;;;;;5059522;28;20229;-87
2023/09/04 00:35:32;;;;;;;1.73;1.30;;;;;;;;;;5045773;28;20262;-87
2023/09/04 00:37:58;;;;;;;1.17;1.03;;;;;;;;;;5060407;28;20278;-86
2023/09/04 00:40:28;;;;;;;1.10;1.10;;;;;;;;;;5062008;28;20222;-86
2023/09/04 00:42:56;;;;;;;1.83;1.10;;;;;;;;;;5068966;28;20214;-86
2023/09/04 00:45:21;;;;;;;3.43;1.20;;;;;;;;;;5055932;28;20219;-86
2023/09/04 00:47:49;;;;;;;0.93;0.93;;;;;;;;;;5047800;28;20212;-86
2023/09/04 00:50:16;;;;;;;1.00;1.00;;;;;;;;;;5065397;28;20198;-85
2023/09/04 00:52:41;;;;;;;1.10;1.10;;;;;;;;;;5061209;28;20215;-86
2023/09/04 00:55:07;;;;;;;1.10;1.00;;;;;;;;;;5055635;28;20202;-85
2023/09/04 00:57:35;;;;;;;1.40;1.30;;;;;;;;;;5063486;28;20961;-86
2023/09/04 01:00:05;;;;;;;1.30;1.20;;;;;;;;;;5053511;28;20267;-87
2023/09/04 01:02:31;;;;;;;1.70;1.60;;;;;;;;;;5051122;28;20693;-87
2023/09/04 01:04:59;;;;;;;2.27;1.33;;;;;;;;;;5086367;28;20218;-86
2023/09/04 01:07:25;;;;;;;1.70;1.23;;;;;;;;;;5053200;28;20226;-87
2023/09/04 01:09:50;;;;;;;1.40;1.30;;;;;;;;;;5061051;28;20222;-87
2023/09/04 01:12:19;;;;;;;1.50;1.40;;;;;;;;;;5040842;28;20259;-87
2023/09/04 01:14:47;;;;;;;1.40;1.30;;;;;;;;;;5041429;28;20272;-86
2023/09/04 01:17:12;;;;;;;1.13;1.10;;;;;;;;;;5040781;28;20222;-87
2023/09/04 01:19:43;;;;;;;1.23;1.17;;;;;;;;;;5060978;28;20217;-87
2023/09/04 01:22:09;;;;;;;1.40;1.17;;;;;;;;;;5056837;28;20703;-87
2023/09/04 01:24:35;;;;;;;1.10;1.10;;;;;;;;;;5027561;28;20225;-87
2023/09/04 01:27:16;;;;;;;1.27;1.17;;;;;;;;;;5036081;28;20214;-87
2023/09/04 01:29:51;;;;;;;1.93;1.37;;;;;;;;;;5048515;28;20229;-87
2023/09/04 01:32:39;;;;;;;1.40;1.10;;;;;;;;;;5026148;28;20344;-86
2023/09/04 01:35:06;;;;;;;2.30;1.37;;;;;;;;;;5018623;28;20731;-86
2023/09/04 01:37:31;;;;;;;1.17;1.17;;;;;;;;;;5032913;28;20712;-86
2023/09/04 01:39:57;;;;;;;3.60;1.37;;;;;;;;;;5030094;28;20223;-87
2023/09/04 01:42:22;;;;;;;1.10;1.00;;;;;;;;;;5037897;28;20634;-87
2023/09/04 01:44:48;;;;;;;3.77;1.27;;;;;;;;;;5045952;28;20210;-86
2023/09/04 01:47:18;;;;;;;1.43;1.33;;;;;;;;;;5054175;28;20214;-87
2023/09/04 01:49:44;;;;;;;1.63;1.40;;;;;;;;;;5042369;28;20581;-87
2023/09/04 01:52:13;;;;;;;1.20;1.20;;;;;;;;;;5055649;28;20198;-86
2023/09/04 01:54:38;;;;;;;1.50;1.40;;;;;;;;;;5021541;28;20701;-87
2023/09/04 01:57:04;;;;;;;1.20;1.10;;;;;;;;;;5052932;28;20241;-87
2023/09/04 01:59:30;;;;;;;1.30;1.20;;;;;;;;;;5026630;28;20210;-86
2023/09/04 02:01:55;;;;;;;1.60;1.50;;;;;;;;;;5041790;28;20450;-86
2023/09/04 02:04:21;;;;;;;1.20;1.20;;;;;;;;;;5027592;28;20496;-86
2023/09/04 02:06:46;;;;;;;1.13;1.03;;;;;;;;;;5052418;28;20222;-87
2023/09/04 02:09:15;;;;;;;2.20;1.60;;;;;;;;;;5052219;28;20210;-86
2023/09/04 02:11:40;;;;;;;1.30;1.20;;;;;;;;;;5040937;28;20206;-87
2023/09/04 02:14:06;;;;;;;1.50;1.40;;;;;;;;;;5034079;28;20245;-86
2023/09/04 02:16:37;;;;;;;1.50;1.27;;;;;;;;;;5038874;28;20219;-86
2023/09/04 02:19:04;;;;;;;1.40;1.30;;;;;;;;;;5049567;28;20214;-87
2023/09/04 02:21:30;;;;;;;1.83;1.30;;;;;;;;;;5033079;28;20264;-86
2023/09/04 02:23:55;;;;;;;1.50;1.20;;;;;;;;;;5030288;28;20589;-85
2023/09/04 02:26:21;;;;;;;4.30;1.30;;;;;;;;;;5045672;28;20243;-86
2023/09/04 02:28:49;;;;;;;1.50;1.40;;;;;;;;;;5016985;28;20206;-86
2023/09/04 02:31:14;;;;;;;1.57;1.10;;;;;;;;;;5032740;28;20276;-87
2023/09/04 02:33:44;;;;;;;1.30;1.20;;;;;;;;;;5067211;28;20364;-85
2023/09/04 02:36:10;;;;;;;1.20;1.20;;;;;;;;;;5020411;28;20682;-86
2023/09/04 02:38:35;;;;;;;1.90;1.23;;;;;;;;;;5037467;28;20304;-86
2023/09/04 02:41:03;;;;;;;1.50;1.40;;;;;;;;;;5050946;28;20590;-85
2023/09/04 02:43:28;;;;;;;1.67;1.57;;;;;;;;;;5044438;28;20215;-86
2023/09/04 02:45:57;;;;;;;4.57;1.63;;;;;;;;;;5034170;28;20236;-85
2023/09/04 02:48:22;;;;;;;1.30;1.30;;;;;;;;;;5054601;28;21754;-86
2023/09/04 02:50:48;;;;;;;1.53;1.27;;;;;;;;;;5048809;28;20589;-86
2023/09/04 02:53:13;;;;;;;1.70;1.60;;;;;;;;;;5043966;28;20218;-86
2023/09/04 02:55:48;;;;;;;1.33;1.23;;;;;;;;;;5038278;28;20206;-86
2023/09/04 02:58:13;;;;;;;1.97;1.60;;;;;;;;;;5047376;28;20229;-86
2023/09/04 03:00:43;;;;;;;1.30;1.30;;;;;;;;;;5034716;28;20255;-86
2023/09/04 03:03:09;;;;;;;1.33;1.23;;;;;;;;;;5035208;28;20224;-86
2023/09/04 03:05:39;;;;;;;1.50;1.40;;;;;;;;;;5040104;28;20213;-86
2023/09/04 03:08:08;;;;;;;1.50;1.40;;;;;;;;;;5040555;28;20202;-85
2023/09/04 03:10:33;;;;;;;1.73;1.40;;;;;;;;;;5050825;28;20218;-86
2023/09/04 03:13:04;;;;;;;2.10;1.30;;;;;;;;;;5044083;28;20830;-85
2023/09/04 03:15:31;;;;;;;1.47;1.37;;;;;;;;;;5040255;28;20710;-85
2023/09/04 03:17:59;;;;;;;2.03;1.60;;;;;;;;;;5053556;28;20584;-84
2023/09/04 03:20:25;;;;;;;1.40;1.30;;;;;;;;;;5029547;28;20233;-84
2023/09/04 03:22:56;;;;;;;1.23;1.20;;;;;;;;;;5037993;28;20202;-84
2023/09/04 03:25:21;;;;;;;1.00;1.00;;;;;;;;;;5038040;28;20224;-85
2023/09/04 03:27:51;;;;;;;1.27;1.17;;;;;;;;;;5021792;28;20224;-85
2023/09/04 03:30:19;;;;;;;2.10;1.57;;;;;;;;;;5039865;28;20198;-84
2023/09/04 03:32:45;;;;;;;3.40;1.10;;;;;;;;;;5035699;28;20709;-84
2023/09/04 03:35:14;;;;;;;1.50;1.40;;;;;;;;;;5040556;28;20604;-84
2023/09/04 03:37:42;;;;;;;1.87;1.60;;;;;;;;;;5055932;28;20222;-85
2023/09/04 03:40:23;;;;;;;1.10;1.10;;;;;;;;;;5031275;28;20222;-85
2023/09/04 03:42:49;;;;;;;1.57;1.30;;;;;;;;;;5050293;28;20210;-85
2023/09/04 03:45:17;;;;;;;1.23;1.23;;;;;;;;;;5050297;28;20202;-85
2023/09/04 03:47:46;;;;;;;1.73;1.13;;;;;;;;;;5059512;28;20222;-80
2023/09/04 03:50:12;;;;;;;1.43;1.33;;;;;;;;;;5051563;28;20207;-79
2023/09/04 03:52:38;;;;;;;2.00;1.27;;;;;;;;;;5047022;28;20298;-79
2023/09/04 03:55:06;;;;;;;6.30;1.40;;;;;;;;;;5033814;28;20218;-77
2023/09/04 03:57:32;;;;;;;3.50;1.70;;;;;;;;;;5071128;28;20638;-79
2023/09/04 04:04:12;;;;;;;1.50;1.40;;;;;;;;;;5084938;28;20268;-78
2023/09/04 04:06:42;;;;;;;1.73;1.40;;;;;;;;;;5072251;28;20339;-78
2023/09/04 04:09:10;;;;;;;1.83;1.70;;;;;;;;;;5057192;28;20211;-79
2023/09/04 04:11:35;;;;;;;1.20;1.20;;;;;;;;;;5056530;28;20314;-79
2023/09/04 04:14:01;;;;;;;1.37;1.30;;;;;;;;;;5046865;28;20214;-79
2023/09/04 04:16:31;;;;;;;1.27;1.17;;;;;;;;;;5040985;28;20621;-79
2023/09/04 04:18:56;;;;;;;2.43;1.40;;;;;;;;;;5020154;28;20217;-79
2023/09/04 04:21:22;;;;;;;1.60;1.50;;;;;;;;;;5055439;28;20234;-78
2023/09/04 04:23:48;;;;;;;1.70;1.60;;;;;;;;;;5080605;28;20210;-79
2023/09/04 04:26:13;;;;;;;1.60;1.50;;;;;;;;;;5073559;28;20210;-80
2023/09/04 04:28:39;;;;;;;2.07;1.30;;;;;;;;;;5049738;28;20267;-79
2023/09/04 04:31:04;;;;;;;1.77;1.67;;;;;;;;;;5047774;28;20604;-78
2023/09/04 04:33:32;;;;;;;1.90;1.80;;;;;;;;;;5041504;28;20313;-79
2023/09/04 04:36:03;;;;;;;1.47;1.37;;;;;;;;;;5051120;28;20980;-77
2023/09/04 04:38:36;;;;;;;1.37;1.27;;;;;;;;;;5072595;28;20233;-79
2023/09/04 04:41:04;;;;;;;4.33;1.70;;;;;;;;;;5057717;28;20262;-79
2023/09/04 04:43:30;;;;;;;2.53;1.63;;;;;;;;;;5058187;28;20219;-79
2023/09/04 04:45:56;;;;;;;3.63;1.67;;;;;;;;;;5041662;28;20310;-79
2023/09/04 04:48:22;;;;;;;1.67;1.57;;;;;;;;;;5062413;28;20232;-76
2023/09/04 04:50:48;;;;;;;2.83;1.90;;;;;;;;;;5051860;28;20222;-77
2023/09/04 04:53:13;;;;;;;1.70;1.60;;;;;;;;;;5071365;28;20221;-78
2023/09/04 04:55:42;;;;;;;4.07;1.70;;;;;;;;;;5065619;28;20225;-79
2023/09/04 04:58:10;;;;;;;2.37;1.90;;;;;;;;;;5064756;28;20233;-78
2023/09/04 05:00:35;;;;;;;2.47;1.60;;;;;;;;;;5070363;28;20245;-78
2023/09/04 05:03:01;;;;;;;3.53;1.93;;;;;;;;;;5056948;28;20210;-77
2023/09/04 05:05:28;;;;;;;1.73;1.63;;;;;;;;;;5043085;28;20222;-79
2023/09/04 05:07:56;;;;;;;1.73;1.63;;;;;;;;;;5031929;28;20218;-78
2023/09/04 05:10:22;;;;;;;2.23;1.50;;;;;;;;;;5070681;28;20213;-79
2023/09/04 05:12:48;;;;;;;1.73;1.63;;;;;;;;;;5040025;28;20265;-80
2023/09/04 05:15:13;;;;;;;2.30;1.67;;;;;;;;;;5049711;28;20286;-79
2023/09/04 05:17:40;;;;;;;2.50;1.70;;;;;;;;;;5031788;28;20222;-78
2023/09/04 05:20:09;;;;;;;2.70;1.50;;;;;;;;;;5062952;28;20222;-79
2023/09/04 05:22:35;;;;;;;2.13;1.50;;;;;;;;;;5046094;28;20245;-79
2023/09/04 05:25:01;;;;;;;1.50;1.40;;;;;;;;;;5037380;28;20722;-79
2023/09/04 05:27:33;;;;;;;2.00;1.60;;;;;;;;;;5047651;28;20230;-80
2023/09/04 05:29:59;;;;;;;3.33;2.23;;;;;;;;;;5055122;28;20712;-79
2023/09/04 05:32:25;;;;;;;2.20;1.50;;;;;;;;;;5032117;28;20229;-78
2023/09/04 05:34:58;;;;;;;1.87;1.77;;;;;;;;;;5046989;28;20597;-80
2023/09/04 05:37:24;;;;;;;2.57;1.93;;;;;;;;;;5050615;28;20226;-79
2023/09/04 05:39:49;;;;;;;1.97;1.87;;;;;;;;;;5028636;28;20226;-78
2023/09/04 05:42:15;;;;;;;4.10;1.83;;;;;;;;;;5051431;28;20591;-79
2023/09/04 05:44:40;;;;;;;2.40;2.20;;;;;;;;;;5067208;28;20221;-79
2023/09/04 05:47:06;;;;;;;2.17;2.00;;;;;;;;;;5047883;28;20218;-78
2023/09/04 05:49:36;;;;;;;2.00;1.90;;;;;;;;;;5049703;28;20385;-78
2023/09/04 05:52:02;;;;;;;1.93;1.80;;;;;;;;;;5080447;28;20647;-79
2023/09/04 05:54:29;;;;;;;3.90;1.97;;;;;;;;;;5051824;28;20227;-79
2023/09/04 05:56:55;;;;;;;3.80;1.87;;;;;;;;;;5056146;28;20636;-80
2023/09/04 05:59:20;;;;;;;1.73;1.63;;;;;;;;;;5049054;28;20240;-78
2023/09/04 06:01:46;;;;;;;1.70;1.60;;;;;;;;;;5042538;28;20229;-79
2023/09/04 06:04:11;;;;;;;2.07;1.90;;;;;;;;;;5069640;28;20267;-80
2023/09/04 06:06:39;;;;;;;5.20;1.87;;;;;;;;;;5078446;28;20784;-80
2023/09/04 06:09:06;;;;;;;1.90;1.70;;;;;;;;;;5045428;28;20222;-79
2023/09/04 06:11:32;;;;;;;1.77;1.63;;;;;;;;;;5055060;28;20668;-78
2023/09/04 06:13:59;;;;;;;1.97;1.83;;;;;;;;;;5083762;28;20210;-78
2023/09/04 06:16:26;;;;;;;3.50;2.07;;;;;;;;;;5031522;28;20238;-79
2023/09/04 06:18:52;;;;;;;1.80;1.70;;;;;;;;;;5063646;28;20218;-80
2023/09/04 06:21:19;;;;;;;1.70;1.60;;;;;;;;;;5062600;28;20214;-79
2023/09/04 06:23:45;;;;;;;1.87;1.77;;;;;;;;;;5072658;28;20225;-79
2023/09/04 06:26:13;;;;;;;4.20;2.00;;;;;;;;;;5033885;28;20210;-79
2023/09/04 06:28:41;;;;;;;2.13;1.80;;;;;;;;;;5068330;28;20597;-79
2023/09/04 06:31:09;;;;;;;2.30;1.97;;;;;;;;;;5055610;28;20225;-78
2023/09/04 06:33:37;;;;;;;2.50;2.30;;;;;;;;;;5059193;28;20222;-78
2023/09/04 06:36:06;;;;;;;4.00;2.90;;;;;;;;;;5034901;28;20215;-79
2023/09/04 06:38:32;;;;;;;3.30;2.37;;;;;;;;;;5091030;28;20229;-78
2023/09/04 06:40:57;;;;;;;2.60;2.40;;;;;;;;;;5044310;28;20959;-77
2023/09/04 06:43:27;;;;;;;2.58;2.38;;;;;;;;;;5046697;28;20218;-78
2023/09/04 06:45:55;;;;;;;2.80;2.60;;;;;;;;;;5078664;28;20230;-77
2023/09/04 06:48:23;;;;;;;2.90;2.70;;;;;;;;;;5066765;28;20604;-78
2023/09/04 06:50:51;;;;;;;3.05;2.13;;;;;;;;;;5051574;28;20227;-78
2023/09/04 06:53:16;;;;;;;3.05;2.85;;;;;;;;;;5068284;28;20222;-78
2023/09/04 06:55:43;;;;;;;2.95;2.65;;;;;;;;;;5058982;28;20441;-78
2023/09/04 06:58:08;;;;;;;2.20;2.05;;;;;;;;;;5054217;28;20214;-78
2023/09/04 07:00:34;;;;;;;2.17;2.08;;;;;;;;;;5081816;28;21053;-78
2023/09/04 07:03:00;;;;;;;2.60;2.40;;;;;;;;;;5038268;28;20695;-79
2023/09/04 07:05:26;;;;;;;2.58;2.38;;;;;;;;;;5042813;28;20260;-79
2023/09/04 07:07:51;;;;;;;4.13;2.45;;;;;;;;;;5052292;28;20257;-78
2023/09/04 07:10:17;;;;;;;2.15;2.00;;;;;;;;;;5043100;28;20223;-77
2023/09/04 07:12:42;;;;;;;2.33;2.17;;;;;;;;;;5036167;28;20214;-78
2023/09/04 07:15:10;;;;;;;2.88;2.67;;;;;;;;;;5039910;28;20229;-78
2023/09/04 07:17:35;;;;;;;5.38;2.08;;;;;;;;;;5049769;28;20227;-77
2023/09/04 07:20:01;;;;;;;2.53;2.33;;;;;;;;;;5042141;28;20230;-78
2023/09/04 07:22:26;;;;;;;2.33;2.13;;;;;;;;;;5080534;28;20222;-78
2023/09/04 07:24:52;;;;;;;2.60;2.40;;;;;;;;;;5043664;28;20226;-79
2023/09/04 07:27:21;;;;;;;2.40;2.20;;;;;;;;;;5048520;28;20221;-80
2023/09/04 07:29:46;;;;;;;2.65;2.45;;;;;;;;;;5044085;28;20230;-77
2023/09/04 07:32:12;;;;;;;1.92;1.83;;;;;;;;;;5042468;28;20210;-78
2023/09/04 07:34:37;;;;;;;3.70;2.45;;;;;;;;;;5068453;28;20230;-78
2023/09/04 07:37:05;;;;;;;2.85;2.20;;;;;;;;;;5044631;28;20218;-78
2023/09/04 07:39:31;;;;;;;2.67;2.47;;;;;;;;;;5068661;28;20225;-80
2023/09/04 07:41:56;;;;;;;3.35;2.20;;;;;;;;;;5044432;28;20233;-78
2023/09/04 07:44:22;;;;;;;2.20;1.95;;;;;;;;;;5071312;28;21399;-78
2023/09/04 07:46:47;;;;;;;2.17;1.88;;;;;;;;;;5047220;28;20222;-79
2023/09/04 07:49:15;;;;;;;2.13;2.03;;;;;;;;;;5053514;28;20556;-77
2023/09/04 07:51:41;;;;;;;2.40;2.10;;;;;;;;;;5046669;28;20226;-77
2023/09/04 07:54:06;;;;;;;2.10;1.90;;;;;;;;;;5044871;28;20214;-77
2023/09/04 07:56:32;;;;;;;2.17;1.98;;;;;;;;;;5063078;28;20702;-78
2023/09/04 07:58:59;;;;;;;1.85;1.75;;;;;;;;;;5049781;28;20229;-78
2023/09/04 08:01:30;;;;;;;1.95;1.85;;;;;;;;;;5061893;28;20226;-78
2023/09/04 08:03:56;;;;;;;1.98;1.80;;;;;;;;;;5048443;28;20226;-78
2023/09/04 08:06:21;;;;;;;3.08;1.70;;;;;;;;;;5069869;28;20222;-78
2023/09/04 08:08:47;;;;;;;1.92;1.65;;;;;;;;;;5070249;28;20283;-79
2023/09/04 08:11:15;;;;;;;2.00;1.60;;;;;;;;;;5034915;28;20219;-78
2023/09/04 08:13:40;;;;;;;2.10;1.90;;;;;;;;;;5062329;28;20217;-78
2023/09/04 08:16:06;;;;;;;4.57;1.80;;;;;;;;;;5064884;28;20643;-77
2023/09/04 08:18:32;;;;;;;1.80;1.70;;;;;;;;;;5054483;28;20755;-77
2023/09/04 08:20:59;;;;;;;1.50;1.40;;;;;;;;;;5078325;28;20233;-79
2023/09/04 08:23:24;;;;;;;2.45;1.50;;;;;;;;;;5069999;28;20227;-78
2023/09/04 08:26:02;;;;;;;1.55;1.45;;;;;;;;;;5037647;28;20298;-77
2023/09/04 08:28:27;;;;;;;1.85;1.45;;;;;;;;;;5037684;28;20230;-79
2023/09/04 08:30:56;;;;;;;1.75;1.60;;;;;;;;;;5070289;28;20244;-78
2023/09/04 08:33:23;;;;;;;1.30;1.20;;;;;;;;;;5032429;28;20215;-77
2023/09/04 08:35:51;;;;;;;1.70;1.30;;;;;;;;;;5071247;28;20227;-77
2023/09/04 08:38:17;;;;;;;1.90;1.25;;;;;;;;;;5035521;28;20321;-77
2023/09/04 08:40:42;;;;;;;1.20;1.10;;;;;;;;;;5044655;28;20718;-79
2023/09/04 08:43:08;;;;;;;2.28;1.27;;;;;;;;;;5049660;28;20280;-79
2023/09/04 08:45:35;;;;;;;1.52;1.40;;;;;;;;;;5038260;28;20298;-79
2023/09/04 08:48:02;;;;;;;2.58;1.10;;;;;;;;;;5044410;28;20296;-77
2023/09/04 08:50:28;;;;;;;1.20;1.10;;;;;;;;;;5047663;28;20214;-76
2023/09/04 08:52:55;;;;;;;1.23;1.10;;;;;;;;;;5044308;28;20225;-77
2023/09/04 08:55:21;;;;;;;1.50;1.15;;;;;;;;;;5056548;28;20948;-79
2023/09/04 08:57:48;;;;;;;6.57;1.17;;;;;;;;;;5063165;28;20230;-79
2023/09/04 09:00:16;;;;;;;3.88;1.20;;;;;;;;;;5040369;28;20239;-78
2023/09/04 09:02:44;;;;;;;1.17;1.08;;;;;;;;;;5036467;28;20241;-78
2023/09/04 09:05:13;;;;;;;1.35;1.20;;;;;;;;;;5043461;28;20946;-79
2023/09/04 09:07:41;;;;;;;2.13;1.13;;;;;;;;;;5042309;28;20230;-79
2023/09/04 09:10:09;;;;;;;1.45;1.35;;;;;;;;;;5069678;28;20335;-78
2023/09/04 09:12:39;;;;;;;1.40;1.10;;;;;;;;;;5049501;28;20310;-79
2023/09/04 09:15:05;;;;;;;1.30;1.10;;;;;;;;;;5052317;28;20318;-78
2023/09/04 09:17:30;;;;;;;2.05;0.98;;;;;;;;;;5070780;28;20222;-79
2023/09/04 09:19:56;;;;;;;0.93;0.88;;;;;;;;;;5056660;28;20214;-80
2023/09/04 09:22:22;;;;;;;1.13;1.00;;;;;;;;;;5037174;28;20837;-78
2023/09/04 09:24:54;;;;;;;0.93;0.93;;;;;;;;;;5043214;28;20245;-77
2023/09/04 09:27:21;;;;;;;1.73;1.20;;;;;;;;;;5044503;28;20755;-80
2023/09/04 09:29:49;;;;;;;0.90;0.90;;;;;;;;;;5051369;28;20217;-77
2023/09/04 09:32:15;;;;;;;1.30;1.20;;;;;;;;;;5067075;28;20275;-78
2023/09/04 09:34:43;;;;;;;1.27;1.05;;;;;;;;;;5050670;28;20942;-79
2023/09/04 09:37:09;;;;;;;3.13;1.20;;;;;;;;;;5069250;28;20266;-78
2023/09/04 09:39:37;;;;;;;1.10;1.00;;;;;;;;;;5071411;28;20920;-79
2023/09/04 09:42:03;;;;;;;2.28;0.90;;;;;;;;;;5036894;28;20329;-79
2023/09/04 09:44:30;;;;;;;1.23;1.13;;;;;;;;;;5064176;28;20282;-79
2023/09/04 09:46:56;;;;;;;1.10;1.00;;;;;;;;;;5054071;28;20293;-78
2023/09/04 09:49:21;;;;;;;1.38;1.08;;;;;;;;;;5044415;28;20226;-78
2023/09/04 09:51:51;;;;;;;1.85;1.08;;;;;;;;;;5077761;28;20237;-78
2023/09/04 09:54:35;;;;;;;1.88;1.00;;;;;;;;;;5030718;28;20260;-78
2023/09/04 09:57:02;;;;;;;1.23;1.00;;;;;;;;;;5071619;28;20239;-78
2023/09/04 09:59:33;;;;;;;1.08;0.95;;;;;;;;;;5046772;28;20709;-78
2023/09/04 10:01:58;;;;;;;4.75;1.10;;;;;;;;;;5043984;28;20246;-79
2023/09/04 10:04:24;;;;;;;0.75;0.73;;;;;;;;;;5035314;28;20873;-76
2023/09/04 10:06:50;;;;;;;1.50;1.25;;;;;;;;;;5060591;28;20331;-78
2023/09/04 10:09:19;;;;;;;1.58;0.90;;;;;;;;;;5036805;28;20290;-79
2023/09/04 10:11:46;;;;;;;1.63;1.08;;;;;;;;;;5035725;28;20222;-78
2023/09/04 10:14:16;;;;;;;1.73;1.27;;;;;;;;;;5044087;28;20221;-79
2023/09/04 10:16:49;;;;;;;1.73;1.20;;;;;;;;;;5064133;28;20241;-77
2023/09/04 10:19:16;;;;;;;1.52;0.90;;;;;;;;;;5081187;28;20240;-77
2023/09/04 10:21:49;;;;;;;1.75;1.05;;;;;;;;;;5076454;28;20237;-76
2023/09/04 10:24:17;;;;;;;0.93;0.93;;;;;;;;;;5051408;28;20681;-77
2023/09/04 10:26:58;;;;;;;1.08;1.00;;;;;;;;;;5033914;28;20275;-77
2023/09/04 10:29:25;;;;;;;2.25;1.00;;;;;;;;;;5035361;28;20239;-76
2023/09/04 10:31:53;;;;;;;2.13;1.10;;;;;;;;;;5046889;28;20222;-80
2023/09/04 10:34:20;;;;;;;1.83;1.10;;;;;;;;;;5032839;28;20292;-79
2023/09/04 10:36:48;;;;;;;0.90;0.90;;;;;;;;;;5030169;28;20585;-75
2023/09/04 10:39:13;;;;;;;0.95;0.93;;;;;;;;;;5016751;28;20710;-80
2023/09/04 10:41:39;;;;;;;0.90;0.90;;;;;;;;;;5067293;28;20238;-78
2023/09/04 10:44:04;;;;;;;1.10;1.10;;;;;;;;;;5051389;28;20214;-80
2023/09/04 10:46:37;;;;;;;0.90;0.90;;;;;;;;;;5067140;28;20248;-81
2023/09/04 10:49:03;;;;;;;1.58;0.90;;;;;;;;;;5054742;28;20253;-77
2023/09/04 10:51:30;;;;;;;1.02;0.95;;;;;;;;;;5053235;28;20211;-81
2023/09/04 10:53:57;;;;;;;1.02;0.93;;;;;;;;;;5049335;28;20229;-80
2023/09/04 10:56:25;;;;;;;1.85;1.20;;;;;;;;;;5048198;28;20291;-82
2023/09/04 10:59:04;;;;;;;1.08;1.05;;;;;;;;;;5055498;28;20254;-80
2023/09/04 11:01:41;;;;;;;1.27;1.00;;;;;;;;;;5054948;28;20332;-81
2023/09/04 11:04:07;;;;;;;1.95;1.23;;;;;;;;;;5062825;28;20229;-79
2023/09/04 11:06:36;;;;;;;1.13;0.82;;;;;;;;;;5071628;28;20242;-81
2023/09/04 11:09:02;;;;;;;1.17;1.08;;;;;;;;;;5086339;28;20707;-81
2023/09/04 11:11:28;;;;;;;1.20;1.20;;;;;;;;;;5048985;28;20217;-80
2023/09/04 11:14:05;;;;;;;1.55;1.23;;;;;;;;;;5067184;28;20240;-82
2023/09/04 11:16:38;;;;;;;1.08;1.00;;;;;;;;;;5071284;28;20320;-81
2023/09/04 11:19:05;;;;;;;2.15;1.10;;;;;;;;;;5065388;28;20252;-80
2023/09/04 11:21:36;;;;;;;1.23;1.13;;;;;;;;;;5046918;28;20288;-83
2023/09/04 11:24:04;;;;;;;1.08;0.98;;;;;;;;;;5054663;28;20272;-78
2023/09/04 11:26:30;;;;;;;1.00;0.90;;;;;;;;;;5071409;28;20314;-79
2023/09/04 11:29:00;;;;;;;1.20;1.10;;;;;;;;;;5065683;28;20229;-82
2023/09/04 11:31:27;;;;;;;1.38;0.98;;;;;;;;;;5075355;28;20261;-78
2023/09/04 11:33:55;;;;;;;1.27;1.20;;;;;;;;;;5045990;28;20601;-81
2023/09/04 11:36:20;;;;;;;1.23;1.13;;;;;;;;;;5023754;28;20734;-79
2023/09/04 11:38:46;;;;;;;1.02;0.95;;;;;;;;;;5058796;28;20226;-80
2023/09/04 11:41:15;;;;;;;0.90;0.90;;;;;;;;;;5067951;28;20237;-79
2023/09/04 11:43:41;;;;;;;1.42;1.02;;;;;;;;;;5056858;28;20229;-80
2023/09/04 11:46:09;;;;;;;1.08;1.00;;;;;;;;;;5075303;28;20222;-80
2023/09/04 11:48:36;;;;;;;1.33;1.20;;;;;;;;;;5054790;28;20267;-79
2023/09/04 11:51:04;;;;;;;1.60;1.30;;;;;;;;;;5068010;28;20236;-80
2023/09/04 11:53:32;;;;;;;1.13;0.80;;;;;;;;;;5055118;28;20260;-80
2023/09/04 11:55:58;;;;;;;0.82;0.82;;;;;;;;;;5050953;28;20219;-77
2023/09/04 11:58:28;;;;;;;3.15;1.17;;;;;;;;;;5074739;28;20221;-79
2023/09/04 12:00:56;;;;;;;0.93;0.93;;;;;;;;;;5057253;28;20285;-80
2023/09/04 12:03:23;;;;;;;1.30;1.10;;;;;;;;;;5089669;28;20206;-78
2023/09/04 12:05:51;;;;;;;2.15;0.98;;;;;;;;;;5042758;28;20217;-77
2023/09/04 12:08:17;;;;;;;1.52;1.20;;;;;;;;;;5071869;28;20222;-78
2023/09/04 12:10:43;;;;;;;1.13;1.02;;;;;;;;;;5088544;28;20222;-78
2023/09/04 12:13:09;;;;;;;1.17;1.05;;;;;;;;;;5014418;28;20250;-78
2023/09/04 12:15:34;;;;;;;2.58;1.10;;;;;;;;;;5038834;28;20216;-79
2023/09/04 12:18:07;;;;;;;3.33;1.30;;;;;;;;;;5047321;28;20210;-80
2023/09/04 12:20:36;;;;;;;1.30;1.20;;;;;;;;;;5063644;28;20229;-82
2023/09/04 12:23:04;;;;;;;1.30;1.08;;;;;;;;;;5070402;28;20210;-80
2023/09/04 12:25:36;;;;;;;0.80;0.80;;;;;;;;;;5081162;28;20214;-78
2023/09/04 12:28:04;;;;;;;1.75;1.00;;;;;;;;;;5081302;28;20214;-80
2023/09/04 12:30:35;;;;;;;1.63;0.85;;;;;;;;;;5062710;28;20210;-80
2023/09/04 12:33:04;;;;;;;1.05;0.88;;;;;;;;;;5050832;28;20222;-79
2023/09/04 12:35:31;;;;;;;3.40;1.33;;;;;;;;;;5088758;28;20249;-78
2023/09/04 12:37:59;;;;;;;1.42;1.00;;;;;;;;;;5072164;28;20229;-78
2023/09/04 12:40:24;;;;;;;1.30;1.20;;;;;;;;;;5066993;28;20227;-81
2023/09/04 12:42:52;;;;;;;1.92;1.10;;;;;;;;;;5087114;28;20218;-81
2023/09/04 12:45:18;;;;;;;0.95;0.95;;;;;;;;;;5076006;28;20279;-79
2023/09/04 12:47:46;;;;;;;2.17;1.10;;;;;;;;;;5062331;28;20233;-80
2023/09/04 12:50:11;;;;;;;2.35;1.20;;;;;;;;;;5055070;28;20672;-80
2023/09/04 12:52:37;;;;;;;1.20;1.10;;;;;;;;;;5052476;28;20240;-80
2023/09/04 12:55:03;;;;;;;1.15;1.05;;;;;;;;;;5058384;28;20242;-78
2023/09/04 12:57:29;;;;;;;1.70;1.30;;;;;;;;;;5072698;28;20419;-78
2023/09/04 12:59:54;;;;;;;1.85;1.02;;;;;;;;;;5069345;28;20589;-81
2023/09/04 13:02:21;;;;;;;1.23;1.17;;;;;;;;;;5077936;28;20230;-82
2023/09/04 13:04:49;;;;;;;1.23;1.05;;;;;;;;;;5059219;28;20249;-81
2023/09/04 13:07:17;;;;;;;1.10;1.10;;;;;;;;;;5030636;28;20672;-80
2023/09/04 13:09:42;;;;;;;2.45;1.10;;;;;;;;;;5060443;28;20214;-83
2023/09/04 13:12:08;;;;;;;2.45;1.20;;;;;;;;;;5046277;28;20226;-80
2023/09/04 13:14:33;;;;;;;4.20;1.17;;;;;;;;;;5072823;28;20615;-81
2023/09/04 13:16:59;;;;;;;1.17;1.05;;;;;;;;;;5045011;28;20666;-80
2023/09/04 13:19:25;;;;;;;3.03;0.98;;;;;;;;;;5055979;28;20218;-80
2023/09/04 13:21:51;;;;;;;2.15;1.13;;;;;;;;;;5066543;28;20233;-79
2023/09/04 13:24:16;;;;;;;5.82;2.88;;;;;;;;;;5051611;28;20241;-81
2023/09/04 13:26:43;;;;;;;1.23;1.13;;;;;;;;;;5064945;28;20279;-80
2023/09/04 13:29:09;;;;;;;2.05;1.40;;;;;;;;;;5087194;28;20249;-79
2023/09/04 13:31:34;;;;;;;1.25;1.15;;;;;;;;;;5054712;28;20238;-80
2023/09/04 13:34:00;;;;;;;1.70;1.20;;;;;;;;;;5062711;28;20206;-80
2023/09/04 13:36:25;;;;;;;1.08;1.08;;;;;;;;;;5037839;28;20228;-80
2023/09/04 13:38:51;;;;;;;1.42;1.33;;;;;;;;;;5045180;28;20710;-81
2023/09/04 13:41:20;;;;;;;1.65;1.10;;;;;;;;;;5039388;28;20222;-81
2023/09/04 13:43:46;;;;;;;1.77;1.10;;;;;;;;;;5080433;28;20234;-81
2023/09/04 13:46:12;;;;;;;1.25;1.05;;;;;;;;;;5089057;28;20235;-82
2023/09/04 13:48:39;;;;;;;1.20;1.10;;;;;;;;;;5074432;28;20226;-80
2023/09/04 13:51:06;;;;;;;1.25;1.15;;;;;;;;;;5073525;28;20266;-83
2023/09/04 13:53:34;;;;;;;2.03;1.20;;;;;;;;;;5078947;28;20229;-80
2023/09/04 13:56:03;;;;;;;1.05;1.05;;;;;;;;;;5093926;28;20214;-82
2023/09/04 13:58:28;;;;;;;1.30;1.20;;;;;;;;;;5071072;28;20293;-79
2023/09/04 14:00:54;;;;;;;1.13;1.02;;;;;;;;;;5062919;28;20219;-79
2023/09/04 14:03:19;;;;;;;1.52;1.20;;;;;;;;;;5080946;28;20255;-83
2023/09/04 14:05:49;;;;;;;1.40;1.30;;;;;;;;;;5056857;28;20621;-80
2023/09/04 14:08:17;;;;;;;0.82;0.82;;;;;;;;;;5078358;28;20227;-82
2023/09/04 14:10:43;;;;;;;1.20;1.10;;;;;;;;;;5046934;28;20210;-80
2023/09/04 14:13:09;;;;;;;1.33;1.10;;;;;;;;;;5047279;28;20215;-80
2023/09/04 14:15:35;;;;;;;1.75;1.20;;;;;;;;;;5080597;28;20221;-79
2023/09/04 14:18:01;;;;;;;4.25;1.20;;;;;;;;;;5057264;28;20311;-78
2023/09/04 14:20:26;;;;;;;1.60;1.35;;;;;;;;;;5078462;28;20279;-79
2023/09/04 14:22:54;;;;;;;1.38;1.27;;;;;;;;;;5051996;28;20206;-80
2023/09/04 14:25:20;;;;;;;6.68;1.30;;;;;;;;;;5054073;28;20236;-81
2023/09/04 14:27:46;;;;;;;1.48;1.13;;;;;;;;;;5050644;28;20214;-81
2023/09/04 14:30:11;;;;;;;1.23;1.13;;;;;;;;;;5035709;28;20241;-78
2023/09/04 14:32:37;;;;;;;1.48;1.10;;;;;;;;;;5058638;28;20766;-79
2023/09/04 14:35:03;;;;;;;1.17;1.10;;;;;;;;;;5074297;28;20224;-79
2023/09/04 14:37:28;;;;;;;1.38;1.27;;;;;;;;;;5083741;28;20233;-80
2023/09/04 14:40:00;;;;;;;1.55;1.30;;;;;;;;;;5050306;28;20630;-82
2023/09/04 14:42:29;;;;;;;1.40;1.30;;;;;;;;;;5040330;28;20226;-82
2023/09/04 14:45:01;;;;;;;1.40;0.98;;;;;;;;;;5052170;28;20209;-80
2023/09/04 14:47:29;;;;;;;1.35;1.25;;;;;;;;;;5070084;28;20239;-78